createdAt,value
2023-03-17T00:01:54.806Z,84.27
2023-03-17T00:04:24.702Z,84.40
2023-03-17T00:06:53.910Z,84.29
2023-03-17T00:09:22.569Z,84.25
2023-03-17T00:11:50.792Z,84.29
2023-03-17T00:14:19.931Z,84.48
2023-03-17T00:16:51.255Z,84.62
2023-03-17T00:19:32.349Z,84.68
2023-03-17T00:22:01.593Z,84.72
2023-03-17T00:24:31.189Z,84.72
2023-03-17T00:26:59.682Z,84.75
2023-03-17T00:29:28.027Z,84.73
2023-03-17T00:31:57.809Z,84.70
2023-03-17T00:34:25.664Z,84.98
2023-03-17T00:36:53.554Z,84.83
2023-03-17T00:39:25.496Z,84.94
2023-03-17T00:41:55.601Z,84.78
2023-03-17T00:44:24.257Z,84.70
2023-03-17T00:46:54.512Z,84.70
2023-03-17T00:49:25.761Z,84.71
2023-03-17T00:51:54.242Z,84.72
2023-03-17T00:54:22.901Z,84.73
2023-03-17T00:56:52.561Z,84.68
2023-03-17T00:59:42.351Z,84.69
2023-03-17T01:02:13.245Z,84.64
2023-03-17T01:04:45.593Z,84.53
2023-03-17T01:07:15.732Z,84.43
2023-03-17T01:09:44.032Z,84.56
2023-03-17T01:12:15.460Z,84.65
2023-03-17T01:14:43.708Z,84.81
2023-03-17T01:17:17.072Z,84.82
2023-03-17T01:19:47.149Z,85.02
2023-03-17T01:22:15.143Z,84.98
2023-03-17T01:24:43.246Z,85.07
2023-03-17T01:27:12.350Z,85.09
2023-03-17T01:29:40.122Z,84.86
2023-03-17T01:32:07.971Z,84.87
2023-03-17T01:34:35.835Z,84.81
2023-03-17T01:37:03.784Z,84.92
2023-03-17T01:39:31.578Z,84.89
2023-03-17T01:42:01.481Z,84.87
2023-03-17T01:44:30.798Z,84.70
2023-03-17T01:46:58.757Z,84.56
2023-03-17T01:49:38.880Z,84.48
2023-03-17T01:52:10.591Z,84.27
2023-03-17T01:54:53.169Z,84.11
2023-03-17T01:57:37.144Z,83.91
2023-03-17T02:00:19.727Z,83.67
2023-03-17T02:02:51.687Z,83.48
2023-03-17T02:05:29.857Z,83.36
2023-03-17T02:07:57.840Z,83.26
2023-03-17T02:10:30.526Z,83.23
2023-03-17T02:13:03.909Z,83.08
2023-03-17T02:15:44.784Z,82.87
2023-03-17T02:18:14.135Z,82.90
2023-03-17T02:20:42.410Z,82.88
2023-03-17T02:23:10.728Z,82.83
2023-03-17T02:25:44.933Z,82.67
2023-03-17T02:28:19.016Z,82.53
2023-03-17T02:30:49.923Z,82.56
2023-03-17T02:33:19.110Z,82.55
2023-03-17T02:35:47.870Z,82.52
2023-03-17T02:38:17.433Z,82.47
2023-03-17T02:40:45.245Z,82.47
2023-03-17T02:43:13.188Z,82.49
2023-03-17T02:45:41.731Z,82.35
2023-03-17T02:48:12.942Z,82.40
2023-03-17T02:50:40.768Z,82.37
2023-03-17T02:53:09.268Z,82.39
2023-03-17T02:55:37.128Z,82.34
2023-03-17T02:58:05.020Z,82.27
2023-03-17T03:00:33.939Z,82.12
2023-03-17T03:03:02.493Z,82.10
2023-03-17T03:05:30.454Z,81.96
2023-03-17T03:07:58.560Z,81.97
2023-03-17T03:10:27.072Z,82.11
2023-03-17T03:12:54.881Z,82.04
2023-03-17T03:15:23.153Z,82.08
2023-03-17T03:17:51.702Z,82.20
2023-03-17T03:20:20.925Z,82.28
2023-03-17T03:22:48.695Z,82.47
2023-03-17T03:25:17.104Z,82.43
2023-03-17T03:27:45.153Z,82.40
2023-03-17T03:30:13.331Z,82.51
2023-03-17T03:32:41.365Z,82.46
2023-03-17T03:35:10.533Z,82.37
2023-03-17T03:37:38.357Z,82.28
2023-03-17T03:40:07.531Z,82.45
2023-03-17T03:42:35.448Z,82.43
2023-03-17T03:45:03.647Z,82.40
2023-03-17T03:47:31.449Z,82.39
2023-03-17T03:49:59.245Z,82.29
2023-03-17T03:52:27.401Z,82.27
2023-03-17T03:54:55.198Z,82.49
2023-03-17T03:57:23.009Z,82.61
2023-03-17T03:59:51.017Z,82.63
2023-03-17T04:02:18.998Z,82.41
2023-03-17T04:04:47.473Z,82.43
2023-03-17T04:07:15.691Z,82.53
2023-03-17T04:09:43.549Z,82.72
2023-03-17T04:12:11.897Z,82.67
2023-03-17T04:14:39.617Z,82.60
2023-03-17T04:17:07.706Z,82.74
2023-03-17T04:19:35.622Z,82.71
2023-03-17T04:22:03.998Z,82.86
2023-03-17T04:24:31.865Z,82.94
2023-03-17T04:26:59.827Z,82.92
2023-03-17T04:29:28.713Z,83.08
2023-03-17T04:31:56.518Z,83.17
2023-03-17T04:34:24.369Z,82.91
2023-03-17T04:36:52.233Z,82.66
2023-03-17T04:39:20.717Z,82.67
2023-03-17T04:41:48.495Z,82.69
2023-03-17T04:44:16.305Z,82.82
2023-03-17T04:46:44.315Z,82.96
2023-03-17T04:49:12.999Z,83.02
2023-03-17T04:51:41.199Z,82.92
2023-03-17T04:54:08.985Z,82.82
2023-03-17T04:56:37.090Z,82.92
2023-03-17T04:59:05.064Z,82.97
2023-03-17T05:01:33.084Z,82.95
2023-03-17T05:04:01.108Z,82.75
2023-03-17T05:06:29.074Z,82.82
2023-03-17T05:08:57.006Z,82.93
2023-03-17T05:11:24.884Z,83.06
2023-03-17T05:13:52.677Z,83.28
2023-03-17T05:16:20.700Z,83.24
2023-03-17T05:18:48.621Z,83.43
2023-03-17T05:21:16.403Z,83.29
2023-03-17T05:23:44.535Z,83.23
2023-03-17T05:26:13.074Z,83.24
2023-03-17T05:28:40.829Z,83.45
2023-03-17T05:31:10.985Z,83.64
2023-03-17T05:33:39.323Z,83.93
2023-03-17T05:36:08.068Z,84.08
2023-03-17T05:38:36.015Z,84.20
2023-03-17T05:41:04.160Z,84.24
2023-03-17T05:43:32.157Z,84.37
2023-03-17T05:46:00.373Z,84.47
2023-03-17T05:48:28.165Z,84.37
2023-03-17T05:50:56.031Z,84.40
2023-03-17T05:53:23.882Z,84.43
2023-03-17T05:55:53.040Z,84.48
2023-03-17T05:58:21.105Z,84.46
2023-03-17T06:00:48.961Z,84.54
2023-03-17T06:03:17.123Z,84.64
2023-03-17T06:05:45.911Z,84.69
2023-03-17T06:08:13.944Z,84.73
2023-03-17T06:10:43.112Z,84.68
2023-03-17T06:13:11.687Z,84.43
2023-03-17T06:15:39.777Z,84.50
2023-03-17T06:18:07.979Z,84.42
2023-03-17T06:20:36.647Z,84.49
2023-03-17T06:23:05.772Z,84.46
2023-03-17T06:25:35.089Z,84.58
2023-03-17T06:28:05.511Z,84.46
2023-03-17T06:30:35.247Z,84.45
2023-03-17T06:33:04.490Z,84.50
2023-03-17T06:35:33.980Z,84.47
2023-03-17T06:38:02.397Z,84.49
2023-03-17T06:40:30.551Z,84.46
2023-03-17T06:42:58.577Z,84.57
2023-03-17T06:45:26.871Z,84.60
2023-03-17T06:47:55.368Z,84.67
2023-03-17T06:50:23.235Z,84.75
2023-03-17T06:52:52.009Z,84.46
2023-03-17T06:55:21.271Z,84.32
2023-03-17T06:57:51.080Z,84.63
2023-03-17T07:00:21.116Z,84.39
2023-03-17T07:02:49.681Z,84.53
2023-03-17T07:05:18.020Z,84.36
2023-03-17T07:07:46.307Z,84.52
2023-03-17T07:10:15.748Z,84.30
2023-03-17T07:12:43.849Z,84.55
2023-03-17T07:15:12.527Z,84.27
2023-03-17T07:17:40.459Z,84.20
2023-03-17T07:20:10.927Z,84.31
2023-03-17T07:22:38.751Z,84.33
2023-03-17T07:25:08.136Z,84.32
2023-03-17T07:27:36.105Z,84.34
2023-03-17T07:30:05.819Z,84.31
2023-03-17T07:32:35.339Z,84.23
2023-03-17T07:35:04.871Z,84.19
2023-03-17T07:37:32.892Z,84.29
2023-03-17T07:40:01.064Z,84.24
2023-03-17T07:42:29.025Z,84.01
2023-03-17T07:44:56.977Z,83.92
2023-03-17T07:47:24.796Z,83.93
2023-03-17T07:49:53.372Z,83.94
2023-03-17T07:52:21.311Z,83.80
2023-03-17T07:54:49.268Z,83.76
2023-03-17T07:57:17.308Z,83.68
2023-03-17T07:59:45.595Z,83.62
2023-03-17T08:02:16.936Z,83.73
2023-03-17T08:04:45.625Z,83.66
2023-03-17T08:07:14.679Z,83.54
2023-03-17T08:09:42.858Z,83.26
2023-03-17T08:12:11.648Z,83.34
2023-03-17T08:14:39.589Z,83.17
2023-03-17T08:17:08.272Z,83.10
2023-03-17T08:19:36.499Z,82.82
2023-03-17T08:22:04.640Z,82.82
2023-03-17T08:24:33.089Z,82.65
2023-03-17T08:27:01.639Z,82.34
2023-03-17T08:29:30.424Z,82.25
2023-03-17T08:31:58.377Z,82.12
2023-03-17T08:34:26.975Z,81.94
2023-03-17T08:36:54.931Z,81.62
2023-03-17T08:39:22.947Z,81.69
2023-03-17T08:41:51.035Z,81.52
2023-03-17T08:44:19.651Z,81.39
2023-03-17T08:46:49.524Z,81.56
2023-03-17T08:49:17.838Z,81.65
2023-03-17T08:51:46.206Z,81.63
2023-03-17T08:54:14.064Z,81.91
2023-03-17T08:56:42.540Z,82.41
2023-03-17T08:59:10.977Z,82.89
2023-03-17T09:01:40.203Z,83.07
2023-03-17T09:04:08.959Z,83.17
2023-03-17T09:06:38.809Z,83.35
2023-03-17T09:09:07.656Z,83.50
2023-03-17T09:11:35.485Z,83.62
2023-03-17T09:14:03.662Z,83.65
2023-03-17T09:16:34.411Z,83.66
2023-03-17T09:19:03.786Z,83.63
2023-03-17T09:21:32.009Z,83.74
2023-03-17T09:24:02.402Z,83.83
2023-03-17T09:26:30.791Z,83.93
2023-03-17T09:28:58.586Z,83.89
2023-03-17T09:31:26.784Z,83.94
2023-03-17T09:33:54.815Z,84.01
2023-03-17T09:36:23.702Z,84.15
2023-03-17T09:38:51.807Z,84.16
2023-03-17T09:41:47.051Z,84.07
2023-03-17T09:44:43.921Z,84.09
2023-03-17T09:47:28.614Z,84.18
2023-03-17T09:50:01.177Z,84.12
2023-03-17T09:52:34.512Z,84.33
2023-03-17T09:55:08.582Z,84.33
2023-03-17T09:57:40.454Z,84.30
2023-03-17T10:00:27.383Z,84.28
2023-03-17T10:02:57.883Z,84.19
2023-03-17T10:05:33.193Z,84.08
2023-03-17T10:08:31.098Z,84.07
2023-03-17T10:11:10.994Z,84.12
2023-03-17T10:13:51.768Z,83.69
2023-03-17T10:16:28.288Z,83.69
2023-03-17T10:19:11.615Z,83.69
2023-03-17T10:21:54.066Z,83.72
2023-03-17T10:24:23.352Z,83.81
2023-03-17T10:26:57.515Z,83.72
2023-03-17T10:29:25.487Z,83.85
2023-03-17T10:31:58.463Z,83.84
2023-03-17T10:34:34.288Z,83.84
2023-03-17T10:37:23.213Z,83.78
2023-03-17T10:39:56.146Z,83.75
2023-03-17T10:42:33.323Z,83.81
2023-03-17T10:45:13.272Z,83.77
2023-03-17T10:47:48.170Z,83.84
2023-03-17T10:50:34.418Z,83.82
2023-03-17T10:53:29.229Z,83.85
2023-03-17T10:56:08.400Z,83.76
2023-03-17T10:58:44.670Z,83.79
2023-03-17T11:01:30.192Z,83.73
2023-03-17T11:04:02.525Z,83.80
2023-03-17T11:06:42.355Z,83.60
2023-03-17T11:09:18.418Z,83.43
2023-03-17T11:11:58.972Z,83.51
2023-03-17T11:14:30.457Z,83.57
2023-03-17T11:17:01.496Z,83.72
2023-03-17T11:19:50.897Z,83.47
2023-03-17T11:22:35.096Z,83.75
2023-03-17T11:25:15.319Z,83.80
2023-03-17T11:27:55.957Z,83.66
2023-03-17T11:30:50.413Z,83.79
2023-03-17T11:34:13.270Z,84.04
2023-03-17T11:37:10.166Z,84.16
2023-03-17T11:40:12.308Z,84.37
2023-03-17T11:42:42.958Z,84.54
2023-03-17T11:45:44.091Z,84.44
2023-03-17T11:48:27.898Z,84.63
2023-03-17T11:51:06.673Z,84.84
2023-03-17T11:53:58.601Z,84.78
2023-03-17T11:56:47.895Z,84.82
2023-03-17T11:59:41.958Z,84.91
2023-03-17T12:02:31.545Z,84.86
2023-03-17T12:05:09.895Z,84.90
2023-03-17T12:07:51.361Z,84.83
2023-03-17T12:10:24.403Z,84.96
2023-03-17T12:13:07.344Z,84.85
2023-03-17T12:15:50.906Z,84.72
2023-03-17T12:18:33.160Z,84.56
2023-03-17T12:21:14.131Z,84.44
2023-03-17T12:24:15.122Z,84.60
2023-03-17T12:27:05.082Z,84.60
2023-03-17T12:29:54.869Z,84.48
2023-03-17T12:32:42.201Z,84.48
2023-03-17T12:35:34.209Z,84.20
2023-03-17T12:38:13.743Z,84.26
2023-03-17T12:41:26.552Z,84.22
2023-03-17T12:44:00.552Z,84.18
2023-03-17T12:46:56.393Z,84.19
2023-03-17T12:49:39.009Z,84.35
2023-03-17T12:52:53.952Z,84.42
2023-03-17T12:55:27.351Z,84.45
2023-03-17T12:58:04.648Z,84.73
2023-03-17T13:00:49.105Z,84.95
2023-03-17T13:03:28.574Z,84.81
2023-03-17T13:06:17.204Z,84.60
2023-03-17T13:08:45.032Z,84.51
2023-03-17T13:11:47.208Z,84.15
2023-03-17T13:14:37.717Z,83.79
2023-03-17T13:17:19.725Z,83.50
2023-03-17T13:20:10.311Z,83.44
2023-03-17T13:22:42.456Z,83.41
2023-03-17T13:25:49.840Z,83.00
2023-03-17T13:28:41.189Z,82.35
2023-03-17T13:31:31.278Z,82.04
2023-03-17T13:34:15.228Z,81.73
2023-03-17T13:36:58.029Z,81.16
2023-03-17T13:40:07.971Z,81.00
2023-03-17T13:43:06.926Z,80.92
2023-03-17T13:45:41.413Z,81.02
2023-03-17T13:48:33.675Z,81.13
2023-03-17T13:51:25.646Z,80.59
2023-03-17T13:54:08.705Z,80.18
2023-03-17T13:56:36.685Z,79.81
2023-03-17T13:59:13.091Z,79.54
2023-03-17T14:02:20.430Z,78.78
2023-03-17T14:05:26.918Z,78.81
2023-03-17T14:07:59.548Z,77.65
2023-03-17T14:10:31.540Z,77.72
2023-03-17T14:13:20.007Z,77.40
2023-03-17T14:15:58.336Z,77.63
2023-03-17T14:18:38.312Z,78.25
2023-03-17T14:21:21.425Z,78.58
2023-03-17T14:23:54.889Z,77.45
2023-03-17T14:26:26.723Z,77.18
2023-03-17T14:28:55.762Z,77.01
2023-03-17T14:31:27.364Z,77.12
2023-03-17T14:34:00.439Z,76.66
2023-03-17T14:36:33.288Z,76.04
2023-03-17T14:39:01.085Z,75.64
2023-03-17T14:41:30.720Z,75.28
2023-03-17T14:44:01.763Z,75.40
2023-03-17T14:46:40.307Z,75.44
2023-03-17T14:49:21.321Z,75.66
2023-03-17T14:51:53.452Z,75.43
2023-03-17T14:54:31.491Z,75.65
2023-03-17T14:57:08.280Z,74.77
2023-03-17T14:59:40.509Z,73.98
2023-03-17T15:02:22.758Z,73.86
2023-03-17T15:05:38.357Z,73.71
2023-03-17T15:08:36.511Z,72.81
2023-03-17T15:11:07.125Z,72.14
2023-03-17T15:13:37.883Z,72.72
2023-03-17T15:16:35.486Z,72.04
2023-03-17T15:19:14.814Z,72.07
2023-03-17T15:21:43.393Z,71.22
2023-03-17T15:24:41.596Z,70.64
2023-03-17T15:27:18.588Z,70.65
2023-03-17T15:29:47.419Z,71.87
2023-03-17T15:32:21.823Z,71.25
2023-03-17T15:34:52.460Z,71.14
2023-03-17T15:37:34.221Z,70.70
2023-03-17T15:40:05.461Z,69.99
2023-03-17T15:42:37.641Z,70.33
2023-03-17T15:45:07.843Z,70.78
2023-03-17T15:47:40.747Z,70.37
2023-03-17T15:50:16.602Z,71.19
2023-03-17T15:52:45.621Z,71.43
2023-03-17T15:55:31.694Z,71.00
2023-03-17T15:58:00.371Z,71.71
2023-03-17T16:00:30.284Z,70.02
2023-03-17T16:03:04.118Z,68.59
2023-03-17T16:05:36.031Z,67.37
2023-03-17T16:08:04.964Z,68.26
2023-03-17T16:10:33.886Z,68.21
2023-03-17T16:13:01.805Z,67.93
2023-03-17T16:15:36.426Z,67.87
2023-03-17T16:18:14.118Z,67.45
2023-03-17T16:20:47.739Z,67.60
2023-03-17T16:23:23.344Z,67.83
2023-03-17T16:25:52.659Z,67.98
2023-03-17T16:28:30.932Z,68.46
2023-03-17T16:31:01.897Z,68.08
2023-03-17T16:33:40.950Z,68.12
2023-03-17T16:36:16.527Z,68.02
2023-03-17T16:38:45.469Z,67.94
2023-03-17T16:41:27.819Z,68.53
2023-03-17T16:44:02.559Z,68.89
2023-03-17T16:46:35.350Z,69.36
2023-03-17T16:49:05.504Z,69.44
2023-03-17T16:51:33.354Z,69.67
2023-03-17T16:54:01.184Z,69.64
2023-03-17T16:56:29.941Z,69.83
2023-03-17T16:58:57.863Z,69.35
2023-03-17T17:01:28.735Z,69.26
2023-03-17T17:03:57.069Z,69.04
2023-03-17T17:06:25.021Z,69.19
2023-03-17T17:08:53.194Z,69.60
2023-03-17T17:11:21.494Z,69.93
2023-03-17T17:13:49.930Z,69.85
2023-03-17T17:16:31.053Z,69.97
2023-03-17T17:18:59.926Z,69.86
2023-03-17T17:21:28.391Z,69.89
2023-03-17T17:23:56.781Z,69.70
2023-03-17T17:26:24.645Z,69.91
2023-03-17T17:28:52.591Z,70.05
2023-03-17T17:31:20.635Z,70.36
2023-03-17T17:33:48.709Z,70.67
2023-03-17T17:36:17.859Z,70.87
2023-03-17T17:38:45.983Z,71.30
2023-03-17T17:41:14.620Z,71.27
2023-03-17T17:43:42.534Z,71.28
2023-03-17T17:46:22.581Z,71.63
2023-03-17T17:48:50.882Z,71.89
2023-03-17T17:51:18.788Z,72.17
2023-03-17T17:53:46.616Z,72.51
2023-03-17T17:56:17.744Z,72.81
2023-03-17T17:58:46.540Z,72.98
2023-03-17T18:01:19.613Z,73.22
2023-03-17T18:03:48.259Z,73.60
2023-03-17T18:06:17.905Z,74.00
2023-03-17T18:08:45.999Z,74.25
2023-03-17T18:11:13.865Z,74.40
2023-03-17T18:13:41.706Z,74.42
2023-03-17T18:16:19.330Z,74.70
2023-03-17T18:18:47.321Z,75.09
2023-03-17T18:21:15.957Z,75.19
2023-03-17T18:23:47.302Z,75.31
2023-03-17T18:26:17.810Z,75.43
2023-03-17T18:28:45.917Z,75.50
2023-03-17T18:31:22.353Z,75.72
2023-03-17T18:33:57.448Z,75.80
2023-03-17T18:36:25.572Z,75.95
2023-03-17T18:38:53.878Z,76.09
2023-03-17T18:41:21.956Z,76.19
2023-03-17T18:43:50.570Z,76.36
2023-03-17T18:46:18.684Z,76.49
2023-03-17T18:48:46.712Z,76.74
2023-03-17T18:51:14.696Z,76.76
2023-03-17T18:53:42.826Z,76.70
2023-03-17T18:56:10.792Z,76.87
2023-03-17T18:58:38.667Z,76.85
2023-03-17T19:01:06.726Z,76.86
2023-03-17T19:03:35.390Z,76.81
2023-03-17T19:06:14.029Z,76.92
2023-03-17T19:08:42.892Z,77.08
2023-03-17T19:11:13.964Z,77.17
2023-03-17T19:13:42.416Z,77.33
2023-03-17T19:16:10.628Z,77.63
2023-03-17T19:18:41.910Z,77.83
2023-03-17T19:21:11.383Z,77.75
2023-03-17T19:23:41.413Z,78.07
2023-03-17T19:26:10.288Z,78.42
2023-03-17T19:28:38.105Z,78.55
2023-03-17T19:31:06.268Z,78.64
2023-03-17T19:33:34.315Z,78.69
2023-03-17T19:36:09.600Z,78.84
2023-03-17T19:38:38.275Z,78.96
2023-03-17T19:41:06.667Z,79.17
2023-03-17T19:43:40.825Z,79.40
2023-03-17T19:46:12.402Z,79.53
2023-03-17T19:48:40.753Z,79.88
2023-03-17T19:51:09.384Z,80.02
2023-03-17T19:53:37.662Z,80.30
2023-03-17T19:56:07.241Z,80.30
2023-03-17T19:58:35.331Z,80.32
2023-03-17T20:01:05.453Z,80.12
2023-03-17T20:03:33.995Z,80.17
2023-03-17T20:06:06.079Z,80.22
2023-03-17T20:08:34.160Z,80.21
2023-03-17T20:11:02.856Z,80.24
2023-03-17T20:13:30.768Z,80.31
2023-03-17T20:15:58.706Z,80.45
2023-03-17T20:18:26.595Z,80.61
2023-03-17T20:20:54.934Z,80.58
2023-03-17T20:23:23.586Z,80.81
2023-03-17T20:25:53.298Z,80.80
2023-03-17T20:28:21.787Z,81.05
2023-03-17T20:30:50.298Z,81.11
2023-03-17T20:33:18.258Z,80.88
2023-03-17T20:35:47.333Z,80.94
2023-03-17T20:38:16.054Z,81.00
2023-03-17T20:40:43.935Z,81.13
2023-03-17T20:43:12.055Z,81.08
2023-03-17T20:45:41.453Z,80.88
2023-03-17T20:48:11.151Z,80.92
2023-03-17T20:50:40.084Z,80.95
2023-03-17T20:53:08.686Z,81.16
2023-03-17T20:55:37.505Z,81.28
2023-03-17T20:58:05.314Z,81.38
2023-03-17T21:00:33.696Z,81.58
2023-03-17T21:03:02.184Z,81.73
2023-03-17T21:05:32.370Z,81.97
2023-03-17T21:08:00.412Z,82.00
2023-03-17T21:10:28.412Z,82.01
2023-03-17T21:12:56.274Z,82.05
2023-03-17T21:15:24.835Z,82.41
2023-03-17T21:17:53.743Z,82.81
2023-03-17T21:20:21.718Z,83.08
2023-03-17T21:22:49.897Z,83.27
2023-03-17T21:25:17.966Z,83.23
2023-03-17T21:27:46.087Z,83.24
2023-03-17T21:30:14.933Z,83.31
2023-03-17T21:32:42.965Z,83.10
2023-03-17T21:35:11.791Z,83.29
2023-03-17T21:37:39.604Z,83.35
2023-03-17T21:40:09.318Z,83.37
2023-03-17T21:42:37.107Z,83.37
2023-03-17T21:45:06.020Z,83.37
2023-03-17T21:47:36.212Z,83.37
2023-03-17T21:50:05.343Z,83.66
2023-03-17T21:52:33.311Z,83.72
2023-03-17T21:55:01.314Z,83.95
2023-03-17T21:57:29.824Z,84.17
2023-03-17T21:59:57.695Z,84.47
2023-03-17T22:02:25.722Z,84.72
2023-03-17T22:04:53.678Z,85.17
2023-03-17T22:07:21.658Z,85.33
2023-03-17T22:09:53.638Z,85.26
2023-03-17T22:12:21.480Z,85.68
2023-03-17T22:14:49.444Z,85.66
2023-03-17T22:17:17.473Z,85.78
2023-03-17T22:19:45.385Z,85.73
2023-03-17T22:22:13.193Z,85.80
2023-03-17T22:24:41.680Z,85.83
2023-03-17T22:27:09.697Z,85.86
2023-03-17T22:29:38.066Z,85.90
2023-03-17T22:32:06.862Z,86.02
2023-03-17T22:34:36.742Z,86.03
2023-03-17T22:37:05.701Z,85.94
2023-03-17T22:39:34.651Z,85.96
2023-03-17T22:42:02.590Z,85.91
2023-03-17T22:44:30.780Z,85.83
2023-03-17T22:46:58.646Z,85.85
2023-03-17T22:49:26.513Z,85.87
2023-03-17T22:51:54.280Z,85.93
2023-03-17T22:54:22.296Z,85.99
2023-03-17T22:56:50.197Z,86.11
2023-03-17T22:59:18.011Z,86.10
2023-03-17T23:01:45.871Z,86.11
2023-03-17T23:04:14.140Z,86.19
2023-03-17T23:06:42.361Z,86.24
2023-03-17T23:09:10.298Z,86.21
2023-03-17T23:11:38.248Z,86.41
2023-03-17T23:14:06.295Z,86.37
2023-03-17T23:16:34.300Z,86.47
2023-03-17T23:19:02.725Z,86.56
2023-03-17T23:21:38.095Z,86.43
2023-03-17T23:24:08.680Z,86.40
2023-03-17T23:26:37.154Z,86.29
2023-03-17T23:29:08.400Z,86.40
2023-03-17T23:31:37.149Z,86.22
2023-03-17T23:34:06.668Z,86.30
2023-03-17T23:36:39.979Z,86.51
2023-03-17T23:39:08.852Z,86.60
2023-03-17T23:41:37.330Z,86.27
2023-03-17T23:44:05.639Z,86.31
2023-03-17T23:46:33.563Z,86.35
2023-03-17T23:49:01.699Z,86.49
2023-03-17T23:51:29.493Z,86.57
2023-03-17T23:53:58.329Z,86.57
2023-03-17T23:56:26.276Z,86.50
2023-03-17T23:58:54.768Z,86.57
